sensor_id;sensor_type;location;lat;lon;timestamp;temperature;humidity
3001;DHT22;1510;51.072;6.678;2023-12-20T00:02:11;7.80;99.90
3001;DHT22;1510;51.072;6.678;2023-12-20T00:04:40;7.70;99.90
3001;DHT22;1510;51.072;6.678;2023-12-20T00:07:06;7.60;99.90
3001;DHT22;1510;51.072;6.678;2023-12-20T00:09:33;7.40;99.90
3001;DHT22;1510;51.072;6.678;2023-12-20T00:12:00;7.40;99.90
3001;DHT22;1510;51.072;6.678;2023-12-20T00:14:27;7.30;99.90
3001;DHT22;1510;51.072;6.678;2023-12-20T00:16:54;7.30;99.90
3001;DHT22;1510;51.072;6.678;2023-12-20T00:19:21;7.20;99.90
3001;DHT22;1510;51.072;6.678;2023-12-20T00:21:49;7.20;99.90
3001;DHT22;1510;51.072;6.678;2023-12-20T00:24:15;7.20;99.90
3001;DHT22;1510;51.072;6.678;2023-12-20T00:26:43;7.10;99.90
3001;DHT22;1510;51.072;6.678;2023-12-20T00:29:10;7.10;99.90
3001;DHT22;1510;51.072;6.678;2023-12-20T00:31:36;7.10;99.90
3001;DHT22;1510;51.072;6.678;2023-12-20T00:34:03;7.00;99.90
3001;DHT22;1510;51.072;6.678;2023-12-20T00:36:30;6.90;99.90
3001;DHT22;1510;51.072;6.678;2023-12-20T00:38:58;6.80;99.90
3001;DHT22;1510;51.072;6.678;2023-12-20T00:41:25;6.80;99.90
3001;DHT22;1510;51.072;6.678;2023-12-20T00:43:52;6.80;99.90
3001;DHT22;1510;51.072;6.678;2023-12-20T00:46:19;6.90;99.90
3001;DHT22;1510;51.072;6.678;2023-12-20T00:48:46;6.90;99.90
3001;DHT22;1510;51.072;6.678;2023-12-20T00:51:13;6.90;99.90
3001;DHT22;1510;51.072;6.678;2023-12-20T00:53:40;6.90;99.90
3001;DHT22;1510;51.072;6.678;2023-12-20T00:56:08;6.90;99.90
3001;DHT22;1510;51.072;6.678;2023-12-20T00:58:35;6.90;99.90
3001;DHT22;1510;51.072;6.678;2023-12-20T01:01:02;6.90;99.90
3001;DHT22;1510;51.072;6.678;2023-12-20T01:03:29;6.90;99.90
3001;DHT22;1510;51.072;6.678;2023-12-20T01:05:56;6.90;99.90
3001;DHT22;1510;51.072;6.678;2023-12-20T01:08:22;6.90;99.90
3001;DHT22;1510;51.072;6.678;2023-12-20T01:10:49;6.90;99.90
3001;DHT22;1510;51.072;6.678;2023-12-20T01:13:17;6.90;99.90
3001;DHT22;1510;51.072;6.678;2023-12-20T01:15:44;6.90;99.90
3001;DHT22;1510;51.072;6.678;2023-12-20T01:18:13;6.80;99.90
3001;DHT22;1510;51.072;6.678;2023-12-20T01:20:39;6.80;99.90
3001;DHT22;1510;51.072;6.678;2023-12-20T01:23:06;6.80;99.90
3001;DHT22;1510;51.072;6.678;2023-12-20T01:25:33;6.70;99.90
3001;DHT22;1510;51.072;6.678;2023-12-20T01:28:00;6.70;99.90
3001;DHT22;1510;51.072;6.678;2023-12-20T01:30:30;6.60;99.90
3001;DHT22;1510;51.072;6.678;2023-12-20T01:32:56;6.50;99.90
3001;DHT22;1510;51.072;6.678;2023-12-20T01:35:23;6.50;99.90
3001;DHT22;1510;51.072;6.678;2023-12-20T01:37:50;6.50;99.90
3001;DHT22;1510;51.072;6.678;2023-12-20T01:40:17;6.50;99.90
3001;DHT22;1510;51.072;6.678;2023-12-20T01:42:44;6.50;99.90
3001;DHT22;1510;51.072;6.678;2023-12-20T01:45:14;6.30;99.90
3001;DHT22;1510;51.072;6.678;2023-12-20T01:47:42;6.20;99.90
3001;DHT22;1510;51.072;6.678;2023-12-20T01:50:09;6.10;99.90
3001;DHT22;1510;51.072;6.678;2023-12-20T01:52:36;6.00;99.90
3001;DHT22;1510;51.072;6.678;2023-12-20T01:55:05;5.90;99.90
3001;DHT22;1510;51.072;6.678;2023-12-20T01:57:38;5.90;99.90
3001;DHT22;1510;51.072;6.678;2023-12-20T02:00:07;5.90;99.90
3001;DHT22;1510;51.072;6.678;2023-12-20T02:02:37;5.90;99.90
3001;DHT22;1510;51.072;6.678;2023-12-20T02:05:07;5.90;99.90
3001;DHT22;1510;51.072;6.678;2023-12-20T02:07:34;5.80;99.90
3001;DHT22;1510;51.072;6.678;2023-12-20T02:10:01;5.70;99.90
3001;DHT22;1510;51.072;6.678;2023-12-20T02:12:28;5.70;99.90
3001;DHT22;1510;51.072;6.678;2023-12-20T02:14:55;5.80;99.90
3001;DHT22;1510;51.072;6.678;2023-12-20T02:17:23;5.80;99.90
3001;DHT22;1510;51.072;6.678;2023-12-20T02:19:50;5.70;99.90
3001;DHT22;1510;51.072;6.678;2023-12-20T02:22:18;5.70;99.90
3001;DHT22;1510;51.072;6.678;2023-12-20T02:24:45;5.60;99.90
3001;DHT22;1510;51.072;6.678;2023-12-20T02:27:12;5.60;99.90
3001;DHT22;1510;51.072;6.678;2023-12-20T02:29:39;5.50;99.90
3001;DHT22;1510;51.072;6.678;2023-12-20T02:32:06;5.70;99.90
3001;DHT22;1510;51.072;6.678;2023-12-20T02:34:33;5.70;99.90
3001;DHT22;1510;51.072;6.678;2023-12-20T02:37:00;5.80;99.90
3001;DHT22;1510;51.072;6.678;2023-12-20T02:39:28;5.80;99.90
3001;DHT22;1510;51.072;6.678;2023-12-20T02:41:55;5.90;99.90
3001;DHT22;1510;51.072;6.678;2023-12-20T02:44:22;5.80;99.90
3001;DHT22;1510;51.072;6.678;2023-12-20T02:46:48;5.80;99.90
3001;DHT22;1510;51.072;6.678;2023-12-20T02:49:15;5.80;99.90
3001;DHT22;1510;51.072;6.678;2023-12-20T02:51:42;5.80;99.90
3001;DHT22;1510;51.072;6.678;2023-12-20T02:54:09;5.90;99.90
3001;DHT22;1510;51.072;6.678;2023-12-20T02:56:37;5.90;99.90
3001;DHT22;1510;51.072;6.678;2023-12-20T02:59:04;5.90;99.90
3001;DHT22;1510;51.072;6.678;2023-12-20T03:01:34;6.00;99.90
3001;DHT22;1510;51.072;6.678;2023-12-20T03:04:01;6.00;99.90
3001;DHT22;1510;51.072;6.678;2023-12-20T03:06:28;5.90;99.90
3001;DHT22;1510;51.072;6.678;2023-12-20T03:08:54;5.90;99.90
3001;DHT22;1510;51.072;6.678;2023-12-20T03:11:21;5.80;99.90
3001;DHT22;1510;51.072;6.678;2023-12-20T03:13:49;5.80;99.90
3001;DHT22;1510;51.072;6.678;2023-12-20T03:16:16;5.70;99.90
3001;DHT22;1510;51.072;6.678;2023-12-20T03:18:43;5.70;99.90
3001;DHT22;1510;51.072;6.678;2023-12-20T03:21:10;5.70;99.90
3001;DHT22;1510;51.072;6.678;2023-12-20T03:23:37;5.70;99.90
3001;DHT22;1510;51.072;6.678;2023-12-20T03:26:07;5.80;99.90
3001;DHT22;1510;51.072;6.678;2023-12-20T03:28:34;5.80;99.90
3001;DHT22;1510;51.072;6.678;2023-12-20T03:31:03;5.80;99.90
3001;DHT22;1510;51.072;6.678;2023-12-20T03:33:30;5.80;99.90
3001;DHT22;1510;51.072;6.678;2023-12-20T03:35:57;5.80;99.90
3001;DHT22;1510;51.072;6.678;2023-12-20T03:38:24;5.80;99.90
3001;DHT22;1510;51.072;6.678;2023-12-20T03:40:51;5.90;99.90
3001;DHT22;1510;51.072;6.678;2023-12-20T03:43:17;5.90;99.90
3001;DHT22;1510;51.072;6.678;2023-12-20T03:45:44;5.90;99.90
3001;DHT22;1510;51.072;6.678;2023-12-20T03:48:13;5.80;99.90
3001;DHT22;1510;51.072;6.678;2023-12-20T03:50:40;5.70;99.90
3001;DHT22;1510;51.072;6.678;2023-12-20T03:53:06;5.80;99.90
3001;DHT22;1510;51.072;6.678;2023-12-20T03:55:34;5.70;99.90
3001;DHT22;1510;51.072;6.678;2023-12-20T03:58:00;5.70;99.90
3001;DHT22;1510;51.072;6.678;2023-12-20T04:00:27;5.70;99.90
3001;DHT22;1510;51.072;6.678;2023-12-20T04:02:54;5.70;99.90
3001;DHT22;1510;51.072;6.678;2023-12-20T04:05:22;5.80;99.90
3001;DHT22;1510;51.072;6.678;2023-12-20T04:07:49;5.80;99.90
3001;DHT22;1510;51.072;6.678;2023-12-20T04:10:16;5.80;99.90
3001;DHT22;1510;51.072;6.678;2023-12-20T04:12:45;5.80;99.90
3001;DHT22;1510;51.072;6.678;2023-12-20T04:15:12;5.80;99.90
3001;DHT22;1510;51.072;6.678;2023-12-20T04:17:39;5.70;99.90
3001;DHT22;1510;51.072;6.678;2023-12-20T04:20:07;5.70;99.90
3001;DHT22;1510;51.072;6.678;2023-12-20T04:22:35;5.60;99.90
3001;DHT22;1510;51.072;6.678;2023-12-20T04:25:02;5.60;99.90
3001;DHT22;1510;51.072;6.678;2023-12-20T04:27:29;5.60;99.90
3001;DHT22;1510;51.072;6.678;2023-12-20T04:29:56;5.60;99.90
3001;DHT22;1510;51.072;6.678;2023-12-20T04:32:23;5.60;99.90
3001;DHT22;1510;51.072;6.678;2023-12-20T04:34:50;5.60;99.90
3001;DHT22;1510;51.072;6.678;2023-12-20T04:37:17;5.60;99.90
3001;DHT22;1510;51.072;6.678;2023-12-20T04:39:45;5.50;99.90
3001;DHT22;1510;51.072;6.678;2023-12-20T04:42:12;5.50;99.90
3001;DHT22;1510;51.072;6.678;2023-12-20T04:44:38;5.60;99.90
3001;DHT22;1510;51.072;6.678;2023-12-20T04:47:05;5.50;99.90
3001;DHT22;1510;51.072;6.678;2023-12-20T04:49:32;5.50;99.90
3001;DHT22;1510;51.072;6.678;2023-12-20T04:51:59;5.50;99.90
3001;DHT22;1510;51.072;6.678;2023-12-20T04:54:26;5.50;99.90
3001;DHT22;1510;51.072;6.678;2023-12-20T04:56:54;5.50;99.90
3001;DHT22;1510;51.072;6.678;2023-12-20T04:59:20;5.50;99.90
3001;DHT22;1510;51.072;6.678;2023-12-20T05:01:47;5.40;99.90
3001;DHT22;1510;51.072;6.678;2023-12-20T05:04:14;5.40;99.90
3001;DHT22;1510;51.072;6.678;2023-12-20T05:06:41;5.40;99.90
3001;DHT22;1510;51.072;6.678;2023-12-20T05:09:08;5.50;99.90
3001;DHT22;1510;51.072;6.678;2023-12-20T05:11:35;5.40;99.90
3001;DHT22;1510;51.072;6.678;2023-12-20T05:14:03;5.50;99.90
3001;DHT22;1510;51.072;6.678;2023-12-20T05:16:30;5.40;99.90
3001;DHT22;1510;51.072;6.678;2023-12-20T05:18:57;5.40;99.90
3001;DHT22;1510;51.072;6.678;2023-12-20T05:21:26;5.50;99.90
3001;DHT22;1510;51.072;6.678;2023-12-20T05:23:53;5.50;99.90
3001;DHT22;1510;51.072;6.678;2023-12-20T05:26:20;5.50;99.90
3001;DHT22;1510;51.072;6.678;2023-12-20T05:28:46;5.50;99.90
3001;DHT22;1510;51.072;6.678;2023-12-20T05:31:14;5.60;99.90
3001;DHT22;1510;51.072;6.678;2023-12-20T05:33:41;5.60;99.90
3001;DHT22;1510;51.072;6.678;2023-12-20T05:36:08;5.60;99.90
3001;DHT22;1510;51.072;6.678;2023-12-20T05:38:37;5.70;99.90
3001;DHT22;1510;51.072;6.678;2023-12-20T05:41:03;5.80;99.90
3001;DHT22;1510;51.072;6.678;2023-12-20T05:43:30;5.80;99.90
3001;DHT22;1510;51.072;6.678;2023-12-20T05:45:58;5.80;99.90
3001;DHT22;1510;51.072;6.678;2023-12-20T05:48:26;5.90;99.90
3001;DHT22;1510;51.072;6.678;2023-12-20T05:50:53;5.90;99.90
3001;DHT22;1510;51.072;6.678;2023-12-20T05:53:20;6.00;99.90
3001;DHT22;1510;51.072;6.678;2023-12-20T05:55:47;6.00;99.90
3001;DHT22;1510;51.072;6.678;2023-12-20T05:58:14;6.10;99.90
3001;DHT22;1510;51.072;6.678;2023-12-20T06:00:41;6.10;99.90
3001;DHT22;1510;51.072;6.678;2023-12-20T06:03:08;6.10;99.90
3001;DHT22;1510;51.072;6.678;2023-12-20T06:05:36;6.20;99.90
3001;DHT22;1510;51.072;6.678;2023-12-20T06:08:04;6.30;99.90
3001;DHT22;1510;51.072;6.678;2023-12-20T06:10:31;6.30;99.90
3001;DHT22;1510;51.072;6.678;2023-12-20T06:12:57;6.30;99.90
3001;DHT22;1510;51.072;6.678;2023-12-20T06:15:26;6.40;99.90
3001;DHT22;1510;51.072;6.678;2023-12-20T06:17:53;6.50;99.90
3001;DHT22;1510;51.072;6.678;2023-12-20T06:20:20;6.40;99.90
3001;DHT22;1510;51.072;6.678;2023-12-20T06:22:48;6.40;99.90
3001;DHT22;1510;51.072;6.678;2023-12-20T06:25:16;6.50;99.90
